Time;durP1;ratioP1;P1;durP2;ratioP2;P2;SDS_P1;SDS_P2;PMS_P1;PMS_P2;Temp;Humidity;BMP_temperature;BMP_pressure;BME280_temperature;BME280_humidity;BME280_pressure;Samples;Min_cycle;Max_cycle;Signal;HPM_P1;HPM_P2
2022/04/15 00:02:24;;;;;;;25.20;21.80;;;;;;;9.55;81.01;102418.09;5016997;28;20070;-69
2022/04/15 00:04:49;;;;;;;25.92;21.50;;;;;;;9.46;81.25;102408.19;5024195;28;20021;-68
2022/04/15 00:07:15;;;;;;;24.67;22.00;;;;;;;9.36;81.17;102402.69;5016574;28;20021;-69
2022/04/15 00:09:40;;;;;;;27.25;23.10;;;;;;;9.38;81.29;102423.31;5024599;28;20484;-69
2022/04/15 00:12:10;;;;;;;27.50;23.77;;;;;;;9.31;81.85;102421.03;5026451;28;20033;-69
2022/04/15 00:14:35;;;;;;;24.95;22.30;;;;;;;9.28;81.91;102413.41;5009223;28;20026;-69
2022/04/15 00:17:01;;;;;;;25.80;21.85;;;;;;;9.24;81.34;102418.84;5024828;28;20036;-69
2022/04/15 00:19:26;;;;;;;26.60;22.08;;;;;;;9.30;81.50;102415.94;5028530;28;20021;-69
2022/04/15 00:21:52;;;;;;;24.80;22.13;;;;;;;9.28;81.87;102420.34;5035470;28;20029;-69
2022/04/15 00:24:17;;;;;;;26.48;22.80;;;;;;;9.24;81.56;102419.69;5028303;28;20029;-70
2022/04/15 00:26:43;;;;;;;28.20;22.40;;;;;;;9.22;81.64;102420.66;5026573;28;20036;-70
2022/04/15 00:29:08;;;;;;;24.85;22.20;;;;;;;9.17;82.08;102422.63;5026531;28;20057;-69
2022/04/15 00:31:34;;;;;;;24.33;21.65;;;;;;;9.13;82.08;102426.31;5026363;28;20021;-69
2022/04/15 00:34:00;;;;;;;25.65;22.13;;;;;;;8.95;82.83;102418.53;5026585;28;20033;-70
2022/04/15 00:36:26;;;;;;;26.75;22.75;;;;;;;8.90;82.11;102423.09;5026442;28;20033;-69
2022/04/15 00:38:51;;;;;;;24.42;21.80;;;;;;;8.92;82.67;102438.53;5024863;28;20052;-69
2022/04/15 00:41:17;;;;;;;25.13;22.27;;;;;;;8.96;81.87;102435.72;5024329;28;20156;-69
2022/04/15 00:43:42;;;;;;;25.85;22.98;;;;;;;8.78;82.99;102442.66;5032936;28;20037;-70
2022/04/15 00:46:09;;;;;;;24.67;21.55;;;;;;;8.74;83.07;102441.09;5044871;28;20393;-69
2022/04/15 00:48:37;;;;;;;25.95;22.58;;;;;;;8.72;83.66;102442.09;5044326;28;20480;-69
2022/04/15 00:51:04;;;;;;;24.55;21.88;;;;;;;8.88;82.32;102453.38;5043393;28;20075;-68
2022/04/15 00:53:30;;;;;;;24.88;22.13;;;;;;;8.74;82.72;102453.22;5024481;28;20029;-69
2022/04/15 00:55:59;;;;;;;26.83;21.85;;;;;;;8.80;83.19;102455.50;5026041;28;20025;-69
2022/04/15 00:58:25;;;;;;;24.05;21.30;;;;;;;8.63;83.16;102447.69;5047817;28;20481;-70
2022/04/15 01:00:53;;;;;;;23.58;21.05;;;;;;;8.58;83.10;102436.72;5039631;28;20033;-70
2022/04/15 01:03:21;;;;;;;25.60;22.02;;;;;;;8.61;83.21;102439.19;5043193;28;20029;-69
2022/04/15 01:05:49;;;;;;;25.67;22.73;;;;;;;8.59;83.22;102447.00;5032669;28;20034;-69
2022/04/15 01:08:21;;;;;;;26.48;22.40;;;;;;;8.56;83.49;102452.34;5029066;28;20021;-69
2022/04/15 01:10:47;;;;;;;25.25;22.02;;;;;;;8.47;83.90;102448.41;5044617;28;20086;-69
2022/04/15 01:13:14;;;;;;;25.05;22.35;;;;;;;8.35;84.02;102438.63;5045428;28;20036;-69
2022/04/15 01:15:40;;;;;;;25.30;22.58;;;;;;;8.25;83.49;102432.19;5035385;28;20064;-68
2022/04/15 01:18:06;;;;;;;27.15;23.00;;;;;;;8.29;84.27;102441.50;5043762;28;20500;-69
2022/04/15 01:20:32;;;;;;;25.25;22.30;;;;;;;8.32;84.49;102449.13;5040961;28;20506;-68
2022/04/15 01:23:05;;;;;;;26.83;23.92;;;;;;;8.22;85.50;102458.19;5029725;28;20029;-69
2022/04/15 01:25:30;;;;;;;27.60;23.63;;;;;;;8.21;84.61;102459.94;5028283;28;20056;-69
2022/04/15 01:27:57;;;;;;;27.20;24.02;;;;;;;8.15;84.63;102455.06;5029859;28;20053;-68
2022/04/15 01:30:22;;;;;;;27.65;24.35;;;;;;;8.17;84.27;102454.97;5029113;28;20025;-68
2022/04/15 01:32:48;;;;;;;28.42;24.30;;;;;;;8.18;85.36;102469.56;5035127;28;20021;-69
2022/04/15 01:35:15;;;;;;;26.60;23.70;;;;;;;8.22;84.81;102458.19;5041664;28;20428;-69
2022/04/15 01:37:42;;;;;;;26.48;23.77;;;;;;;8.22;84.54;102461.63;5042224;28;20496;-70
2022/04/15 01:40:09;;;;;;;27.25;24.27;;;;;;;8.13;84.56;102468.94;5046345;28;20032;-69
2022/04/15 01:42:36;;;;;;;28.15;24.83;;;;;;;8.11;85.21;102465.59;5039413;28;20302;-69
2022/04/15 01:45:03;;;;;;;28.35;24.65;;;;;;;8.04;85.22;102459.03;5033419;28;20111;-69
2022/04/15 01:47:29;;;;;;;26.35;23.60;;;;;;;7.95;84.65;102463.69;5027923;28;20018;-69
2022/04/15 01:49:54;;;;;;;25.80;23.10;;;;;;;7.97;85.10;102464.47;5028221;28;20075;-69
2022/04/15 01:52:19;;;;;;;25.98;23.27;;;;;;;7.92;85.61;102476.75;5036562;28;20459;-68
2022/04/15 01:54:46;;;;;;;27.60;24.58;;;;;;;7.79;85.97;102464.41;5046491;28;20083;-70
2022/04/15 01:57:11;;;;;;;27.23;24.33;;;;;;;7.83;85.14;102477.13;5046503;28;20033;-69
2022/04/15 01:59:37;;;;;;;27.23;24.33;;;;;;;7.71;85.57;102457.00;5047395;28;20020;-69
2022/04/15 02:02:03;;;;;;;28.55;23.85;;;;;;;7.74;85.59;102472.38;5029447;28;20029;-69
2022/04/15 02:04:30;;;;;;;26.58;23.67;;;;;;;7.69;85.35;102479.50;5031615;28;20068;-69
2022/04/15 02:06:55;;;;;;;38.13;25.00;;;;;;;7.58;85.87;102481.69;5046359;28;20139;-69
2022/04/15 02:09:21;;;;;;;27.90;25.10;;;;;;;7.59;86.28;102488.53;5036790;28;20601;-69
2022/04/15 02:11:46;;;;;;;32.97;23.35;;;;;;;7.48;86.66;102493.31;5030548;28;20033;-70
2022/04/15 02:14:16;;;;;;;35.15;23.98;;;;;;;7.34;87.26;102492.16;5038462;28;20625;-69
2022/04/15 02:16:42;;;;;;;28.20;23.80;;;;;;;7.35;87.56;102490.41;5029865;28;20037;-69
2022/04/15 02:19:08;;;;;;;34.47;23.90;;;;;;;7.26;88.16;102491.59;5028656;28;20028;-69
2022/04/15 02:21:33;;;;;;;30.83;24.00;;;;;;;7.25;88.53;102484.78;5027710;28;20136;-69
2022/04/15 02:23:58;;;;;;;28.08;23.65;;;;;;;7.25;89.33;102492.50;5049584;28;20079;-69
2022/04/15 02:26:24;;;;;;;30.48;23.73;;;;;;;7.25;89.71;102500.25;5034963;28;20033;-69
2022/04/15 02:28:49;;;;;;;28.10;25.15;;;;;;;7.20;89.41;102491.84;5043274;28;20376;-69
2022/04/15 02:31:15;;;;;;;27.17;23.75;;;;;;;7.11;89.97;102481.91;5047795;28;20052;-69
2022/04/15 02:33:41;;;;;;;27.10;24.02;;;;;;;7.17;90.88;102499.75;5045372;28;20028;-69
2022/04/15 02:36:06;;;;;;;25.48;22.77;;;;;;;7.17;91.37;102500.56;5048252;28;20430;-70
2022/04/15 02:38:32;;;;;;;25.92;23.33;;;;;;;7.15;90.99;102510.09;5046476;28;20032;-68
2022/04/15 02:40:57;;;;;;;26.42;23.45;;;;;;;7.13;91.34;102506.75;5040279;28;20052;-69
2022/04/15 02:43:25;;;;;;;25.20;22.55;;;;;;;7.17;91.04;102507.47;5031678;28;20076;-69
2022/04/15 02:45:51;;;;;;;27.17;24.27;;;;;;;7.16;90.80;102510.94;5040919;28;20080;-69
2022/04/15 02:48:17;;;;;;;26.98;22.30;;;;;;;7.12;90.69;102514.56;5026729;28;20158;-69
2022/04/15 02:50:45;;;;;;;25.92;23.20;;;;;;;7.05;90.93;102505.38;5029667;28;20471;-68
2022/04/15 02:53:11;;;;;;;24.10;21.65;;;;;;;6.98;91.10;102507.34;5036424;28;20037;-68
2022/04/15 02:55:36;;;;;;;24.15;21.65;;;;;;;7.03;91.77;102514.91;5037114;28;20036;-69
2022/04/15 02:58:01;;;;;;;24.15;21.73;;;;;;;7.02;90.86;102508.09;5037675;28;20025;-68
2022/04/15 03:00:27;;;;;;;24.63;21.98;;;;;;;6.99;91.23;102508.19;5047126;28;20036;-68
2022/04/15 03:02:52;;;;;;;24.33;21.55;;;;;;;6.77;91.22;102483.25;5046464;28;20037;-68
2022/04/15 03:05:17;;;;;;;22.90;20.50;;;;;;;7.03;91.48;102515.75;5044235;28;20076;-68
2022/04/15 03:07:43;;;;;;;22.60;20.20;;;;;;;7.02;91.39;102526.16;5040586;28;20025;-69
2022/04/15 03:10:09;;;;;;;23.85;21.35;;;;;;;6.99;91.08;102523.66;5027282;28;20084;-69
2022/04/15 03:12:38;;;;;;;24.30;21.85;;;;;;;6.94;91.29;102521.28;5029216;28;20025;-68
2022/04/15 03:15:06;;;;;;;23.17;20.80;;;;;;;6.98;90.98;102528.00;5044062;28;20063;-69
2022/04/15 03:17:33;;;;;;;21.30;19.00;;;;;;;6.93;90.94;102525.59;5026480;28;20056;-69
2022/04/15 03:20:02;;;;;;;23.83;20.80;;;;;;;7.00;90.81;102520.22;5027951;28;20104;-69
2022/04/15 03:22:35;;;;;;;24.13;21.70;;;;;;;6.95;91.36;102527.28;5026195;28;20427;-69
2022/04/15 03:25:00;;;;;;;24.15;21.48;;;;;;;7.00;91.14;102540.84;5027390;28;20056;-69
2022/04/15 03:27:25;;;;;;;24.95;22.45;;;;;;;7.05;91.14;102533.75;5027564;28;20033;-68
2022/04/15 03:29:51;;;;;;;24.45;21.88;;;;;;;7.00;91.40;102522.78;5053989;28;20075;-69
2022/04/15 03:32:16;;;;;;;23.67;21.15;;;;;;;7.02;90.81;102533.88;5031071;28;20359;-69
2022/04/15 03:34:41;;;;;;;24.42;21.83;;;;;;;6.96;91.55;102528.97;5026200;28;20017;-68
2022/04/15 03:37:07;;;;;;;24.38;21.88;;;;;;;7.03;90.86;102531.22;5026838;28;20033;-68
2022/04/15 03:39:32;;;;;;;25.10;21.90;;;;;;;7.02;91.72;102529.56;5027178;28;20034;-69
2022/04/15 03:41:58;;;;;;;24.88;22.27;;;;;;;7.00;91.64;102525.38;5027279;28;20099;-70
2022/04/15 03:44:23;;;;;;;26.50;23.75;;;;;;;6.97;91.59;102531.47;5037072;28;20056;-69
2022/04/15 03:46:48;;;;;;;25.48;22.77;;;;;;;7.00;91.55;102538.28;5044988;28;20381;-69
2022/04/15 03:49:14;;;;;;;26.30;23.48;;;;;;;7.03;92.11;102545.88;5041721;28;20029;-69
2022/04/15 03:51:39;;;;;;;27.23;23.15;;;;;;;6.99;92.02;102523.66;5042487;28;20701;-69
2022/04/15 03:54:04;;;;;;;25.83;23.13;;;;;;;7.05;91.84;102544.06;5043119;28;20048;-68
2022/04/15 03:56:30;;;;;;;25.67;22.95;;;;;;;7.07;92.28;102547.44;5045676;28;20025;-69
2022/04/15 03:58:56;;;;;;;27.63;23.20;;;;;;;7.00;92.26;102536.53;5033451;28;20473;-69
2022/04/15 04:01:22;;;;;;;23.83;21.33;;;;;;;7.00;91.75;102543.44;5040549;28;20146;-69
2022/04/15 04:03:47;;;;;;;23.92;21.42;;;;;;;7.06;91.87;102545.78;5039932;28;20053;-69
2022/04/15 04:06:13;;;;;;;24.05;21.67;;;;;;;6.99;91.82;102539.16;5039057;28;20029;-69
2022/04/15 04:08:38;;;;;;;25.00;21.40;;;;;;;7.08;91.99;102549.97;5035612;28;20188;-69
2022/04/15 04:11:03;;;;;;;23.98;21.58;;;;;;;7.19;91.61;102555.53;5042051;28;20024;-69
2022/04/15 04:13:29;;;;;;;22.20;19.80;;;;;;;7.08;92.28;102541.38;5037600;28;20041;-69
2022/04/15 04:15:54;;;;;;;21.42;19.08;;;;;;;7.10;92.14;102552.47;5042599;28;20089;-69
2022/04/15 04:18:21;;;;;;;20.92;17.75;;;;;;;7.07;91.99;102548.28;5026977;28;20116;-68
2022/04/15 04:20:47;;;;;;;19.20;17.13;;;;;;;7.16;91.55;102562.53;5043543;28;20013;-68
2022/04/15 04:23:13;;;;;;;19.27;17.27;;;;;;;7.14;91.48;102560.03;5037656;28;20072;-68
2022/04/15 04:25:38;;;;;;;19.88;17.77;;;;;;;7.14;91.12;102551.44;5046543;28;20400;-68
2022/04/15 04:28:04;;;;;;;20.45;18.35;;;;;;;7.13;91.55;102560.09;5041607;28;20032;-69
2022/04/15 04:30:29;;;;;;;20.08;17.98;;;;;;;7.08;91.87;102562.03;5039678;28;20060;-69
2022/04/15 04:32:55;;;;;;;19.27;17.27;;;;;;;7.21;91.94;102568.38;5046945;28;20104;-68
2022/04/15 04:35:21;;;;;;;18.60;16.70;;;;;;;7.02;91.87;102531.31;5044195;28;20478;-68
2022/04/15 04:37:47;;;;;;;20.00;17.42;;;;;;;7.17;91.86;102559.09;5046966;28;20067;-67
2022/04/15 04:40:13;;;;;;;21.00;18.15;;;;;;;7.09;92.15;102567.13;5034767;28;20434;-68
2022/04/15 04:42:40;;;;;;;21.45;18.92;;;;;;;7.18;92.25;102573.66;5026780;28;20040;-67
2022/04/15 04:45:06;;;;;;;22.17;19.40;;;;;;;7.17;91.47;102574.56;5040978;28;20044;-68
2022/04/15 04:47:32;;;;;;;21.95;19.38;;;;;;;7.21;91.92;102578.69;5046329;28;20075;-67
2022/04/15 04:49:58;;;;;;;21.75;19.45;;;;;;;7.21;91.81;102578.69;5033663;28;20484;-70
2022/04/15 04:52:23;;;;;;;22.90;20.40;;;;;;;7.28;91.05;102594.78;5026771;28;20469;-69
2022/04/15 04:54:50;;;;;;;24.10;20.25;;;;;;;7.21;91.99;102576.13;5026782;28;20060;-68
2022/04/15 04:57:15;;;;;;;24.05;20.48;;;;;;;7.31;92.09;102595.50;5043616;28;20029;-69
2022/04/15 04:59:41;;;;;;;23.80;19.38;;;;;;;7.26;91.29;102581.94;5043936;28;20373;-69
2022/04/15 05:02:08;;;;;;;21.27;18.58;;;;;;;7.24;91.55;102581.16;5044357;28;20049;-69
2022/04/15 05:04:33;;;;;;;21.90;19.20;;;;;;;7.34;91.67;102597.97;5042290;28;20022;-68
2022/04/15 05:06:58;;;;;;;20.17;18.02;;;;;;;7.34;91.64;102597.09;5027565;28;20036;-69
2022/04/15 05:09:24;;;;;;;21.15;18.95;;;;;;;7.31;91.26;102599.81;5034184;28;20037;-69
2022/04/15 05:11:51;;;;;;;20.73;17.77;;;;;;;7.22;91.45;102589.84;5041673;28;20024;-68
2022/04/15 05:14:17;;;;;;;19.88;17.52;;;;;;;7.30;91.24;102603.31;5042676;28;20035;-68
2022/04/15 05:16:43;;;;;;;19.88;17.67;;;;;;;7.34;91.53;102597.97;5045905;28;20021;-69
2022/04/15 05:19:08;;;;;;;22.40;18.40;;;;;;;7.29;91.39;102599.91;5052086;28;20354;-67
2022/04/15 05:21:35;;;;;;;19.88;17.83;;;;;;;7.33;91.28;102613.50;5064936;28;20036;-68
2022/04/15 05:24:01;;;;;;;19.88;17.77;;;;;;;7.34;91.27;102608.31;5025991;28;20109;-69
2022/04/15 05:26:28;;;;;;;19.70;17.70;;;;;;;7.45;90.75;102616.47;5030804;28;20033;-68
2022/04/15 05:28:53;;;;;;;19.95;15.90;;;;;;;7.45;91.37;102621.63;5045482;28;20035;-69
2022/04/15 05:31:19;;;;;;;18.95;16.42;;;;;;;7.43;90.50;102623.41;5044060;28;20025;-68
2022/04/15 05:33:44;;;;;;;20.38;16.38;;;;;;;7.43;90.62;102633.72;5043416;28;20517;-67
2022/04/15 05:36:09;;;;;;;21.65;17.00;;;;;;;7.40;91.21;102633.88;5029601;28;20025;-68
2022/04/15 05:38:35;;;;;;;18.92;16.20;;;;;;;7.44;90.56;102640.56;5037368;28;20033;-68
2022/04/15 05:41:00;;;;;;;20.58;16.35;;;;;;;7.47;90.30;102643.94;5033280;28;20017;-68
2022/04/15 05:43:26;;;;;;;18.65;16.27;;;;;;;7.43;90.96;102627.72;5038988;28;20111;-68
2022/04/15 05:45:51;;;;;;;17.75;15.02;;;;;;;7.45;90.41;102637.13;5041684;28;20518;-68
2022/04/15 05:48:16;;;;;;;18.08;15.90;;;;;;;7.45;90.03;102641.41;5043330;28;20060;-68
2022/04/15 05:50:42;;;;;;;19.00;15.60;;;;;;;7.43;90.31;102641.47;5037226;28;20492;-68
2022/04/15 05:53:07;;;;;;;21.15;16.00;;;;;;;7.44;90.22;102640.56;5026149;28;20108;-68
2022/04/15 05:55:33;;;;;;;19.02;15.38;;;;;;;7.47;90.07;102636.22;5028380;28;20028;-68
2022/04/15 05:57:58;;;;;;;16.90;15.07;;;;;;;7.49;89.68;102655.03;5045687;28;20021;-70
2022/04/15 06:00:24;;;;;;;17.55;14.35;;;;;;;7.53;89.79;102656.63;5031372;28;20036;-67
2022/04/15 06:02:49;;;;;;;17.55;14.85;;;;;;;7.48;89.40;102649.03;5041534;28;20029;-68
2022/04/15 06:05:14;;;;;;;17.58;15.05;;;;;;;7.47;89.49;102654.28;5036310;28;20035;-68
2022/04/15 06:07:40;;;;;;;21.10;15.65;;;;;;;7.52;89.83;102652.38;5038124;28;20021;-68
2022/04/15 06:10:05;;;;;;;19.45;16.73;;;;;;;7.58;89.93;102668.44;5029227;28;20037;-68
2022/04/15 06:15:23;;;;;;;18.15;15.05;;;;;;;7.56;88.96;102679.72;5048246;28;20040;-70
2022/04/15 06:17:49;;;;;;;17.98;14.52;;;;;;;7.59;89.04;102679.63;5048301;28;20031;-68
2022/04/15 06:20:14;;;;;;;16.17;14.40;;;;;;;7.61;89.00;102680.38;5048577;28;20025;-69
2022/04/15 06:22:46;;;;;;;15.48;12.63;;;;;;;7.62;87.94;102684.63;5035014;28;20041;-69
2022/04/15 06:25:11;;;;;;;15.75;12.57;;;;;;;7.57;87.41;102676.22;5028317;28;20036;-69
2022/04/15 06:27:37;;;;;;;16.20;12.10;;;;;;;7.74;87.74;102689.31;5028829;28;20026;-69
2022/04/15 06:30:03;;;;;;;13.18;11.50;;;;;;;7.75;86.63;102683.28;5038848;28;20028;-68
2022/04/15 06:32:29;;;;;;;11.55;8.93;;;;;;;7.73;84.68;102687.63;5044708;28;20108;-69
2022/04/15 06:34:54;;;;;;;11.43;9.10;;;;;;;7.72;84.71;102665.31;5047414;28;20151;-69
2022/04/15 06:37:19;;;;;;;13.00;9.63;;;;;;;7.87;84.48;102690.53;5041926;28;20115;-71
2022/04/15 06:39:50;;;;;;;11.50;9.45;;;;;;;7.91;83.99;102702.44;5045031;28;20029;-69
2022/04/15 06:42:20;;;;;;;11.18;9.32;;;;;;;7.92;84.40;102704.09;5034208;28;20033;-69
2022/04/15 06:44:45;;;;;;;10.50;8.77;;;;;;;7.94;82.46;102706.63;5043872;28;20056;-68
2022/04/15 06:47:11;;;;;;;9.18;8.13;;;;;;;8.06;81.87;102713.03;5044442;28;20041;-69
2022/04/15 06:49:36;;;;;;;11.85;8.23;;;;;;;8.17;82.71;102708.25;5048507;28;20029;-68
2022/04/15 06:52:02;;;;;;;10.13;8.23;;;;;;;8.19;81.69;102711.63;5047588;28;20064;-69
2022/04/15 06:54:27;;;;;;;10.50;8.40;;;;;;;8.21;80.93;102704.66;5016619;28;20079;-68
2022/04/15 06:56:52;;;;;;;10.20;8.35;;;;;;;8.31;81.20;102711.09;5036385;28;20592;-68
2022/04/15 06:59:18;;;;;;;9.52;7.75;;;;;;;8.31;80.41;102716.28;5047864;28;20032;-69
2022/04/15 07:01:44;;;;;;;10.48;7.50;;;;;;;8.43;80.75;102718.41;5048164;28;20487;-69
2022/04/15 07:04:09;;;;;;;9.43;7.55;;;;;;;8.54;79.95;102711.91;5045753;28;20020;-71
2022/04/15 07:06:34;;;;;;;10.38;6.65;;;;;;;8.58;79.54;102713.47;5042861;28;20480;-69
2022/04/15 07:09:00;;;;;;;7.38;6.57;;;;;;;8.68;79.17;102709.59;5041888;28;20025;-70
2022/04/15 07:11:25;;;;;;;8.05;7.05;;;;;;;8.73;79.40;102713.66;5045813;28;20028;-69
2022/04/15 07:13:50;;;;;;;10.23;7.18;;;;;;;8.86;79.81;102724.28;5041835;28;20024;-69
2022/04/15 07:16:16;;;;;;;8.23;6.47;;;;;;;8.78;78.28;102710.88;5028104;28;20021;-69
2022/04/15 07:18:41;;;;;;;8.23;6.35;;;;;;;8.78;77.80;102726.41;5033631;28;20032;-70
2022/04/15 07:21:06;;;;;;;8.63;6.13;;;;;;;8.74;76.66;102717.06;5047725;28;20154;-68
2022/04/15 07:23:32;;;;;;;8.48;5.55;;;;;;;8.64;76.30;102708.03;5047737;28;20106;-69
2022/04/15 07:25:57;;;;;;;8.00;5.82;;;;;;;8.60;76.15;102720.28;5051502;28;20029;-68
2022/04/15 07:28:23;;;;;;;7.63;5.32;;;;;;;8.63;77.16;102721.88;5055800;28;20056;-68
2022/04/15 07:30:48;;;;;;;8.05;6.10;;;;;;;8.69;77.41;102724.19;5042447;28;20036;-69
2022/04/15 07:33:13;;;;;;;8.57;6.07;;;;;;;8.70;76.03;102728.47;5026006;28;20036;-70
2022/04/15 07:35:39;;;;;;;8.00;5.97;;;;;;;8.63;76.66;102722.72;5026764;28;20021;-69
2022/04/15 07:38:04;;;;;;;7.65;5.93;;;;;;;8.69;76.11;102737.13;5027524;28;20033;-68
2022/04/15 07:40:29;;;;;;;8.40;5.70;;;;;;;8.69;76.09;102731.94;5027859;28;20021;-70
2022/04/15 07:42:57;;;;;;;6.57;5.25;;;;;;;8.63;75.82;102721.88;5027136;28;20413;-69
2022/04/15 07:45:23;;;;;;;8.95;5.70;;;;;;;8.69;76.07;102735.38;5044306;28;20136;-69
2022/04/15 07:47:48;;;;;;;6.65;5.78;;;;;;;8.72;75.89;102729.25;5040077;28;20040;-68
2022/04/15 07:50:14;;;;;;;8.73;5.53;;;;;;;8.74;75.51;102740.38;5036483;28;20377;-69
2022/04/15 07:52:39;;;;;;;7.03;6.07;;;;;;;8.71;74.91;102741.31;5033000;28;20072;-69
2022/04/15 07:55:05;;;;;;;7.82;5.30;;;;;;;8.72;75.02;102742.19;5030926;28;20440;-68
2022/04/15 07:57:30;;;;;;;8.30;5.78;;;;;;;8.65;74.38;102730.41;5036568;28;20116;-69
2022/04/15 07:59:56;;;;;;;7.28;5.78;;;;;;;8.69;74.64;102747.47;5042389;28;20056;-69
2022/04/15 08:02:22;;;;;;;8.18;5.80;;;;;;;8.65;74.38;102738.16;5046820;28;20083;-69
2022/04/15 08:04:47;;;;;;;8.10;6.05;;;;;;;8.67;75.32;102744.13;5045290;28;20376;-68
2022/04/15 08:07:12;;;;;;;9.82;5.97;;;;;;;8.70;75.07;102738.81;5046332;28;20132;-68
2022/04/15 08:09:39;;;;;;;8.35;6.20;;;;;;;8.81;75.11;102754.72;5035959;28;20112;-69
2022/04/15 08:12:06;;;;;;;7.53;5.97;;;;;;;8.86;74.68;102745.00;5027116;28;20060;-68
2022/04/15 08:14:31;;;;;;;7.82;5.68;;;;;;;8.84;75.19;102733.88;5031737;28;20047;-68
2022/04/15 08:16:56;;;;;;;8.43;6.30;;;;;;;8.98;74.43;102741.88;5032751;28;20056;-70
2022/04/15 08:19:22;;;;;;;8.77;6.40;;;;;;;9.00;74.97;102742.66;5031383;28;20033;-69
2022/04/15 08:21:47;;;;;;;8.52;6.00;;;;;;;9.11;74.90;102749.91;5040502;28;20147;-68
2022/04/15 08:24:13;;;;;;;8.02;5.82;;;;;;;9.03;73.57;102747.69;5032309;28;20033;-69
2022/04/15 08:26:39;;;;;;;8.20;6.40;;;;;;;9.07;74.10;102757.91;5035343;28;20083;-68
2022/04/15 08:29:05;;;;;;;12.07;6.43;;;;;;;8.99;74.12;102746.13;5031912;28;20060;-69
2022/04/15 08:31:30;;;;;;;7.25;6.18;;;;;;;9.09;74.32;102756.09;5032602;28;20075;-68
2022/04/15 08:33:56;;;;;;;7.43;5.88;;;;;;;9.16;74.47;102741.97;5033005;28;20412;-70
2022/04/15 08:36:21;;;;;;;7.90;5.90;;;;;;;9.13;73.08;102755.88;5034478;28;20465;-69
2022/04/15 08:38:46;;;;;;;8.93;6.60;;;;;;;9.19;73.64;102762.53;5033895;28;20033;-68
2022/04/15 08:41:14;;;;;;;9.07;6.95;;;;;;;9.24;73.46;102760.59;5032333;28;20040;-68
2022/04/15 08:43:41;;;;;;;9.00;6.80;;;;;;;9.26;74.31;102769.13;5033559;28;20493;-69
2022/04/15 08:46:07;;;;;;;9.18;6.50;;;;;;;9.28;73.09;102767.28;5030545;28;20037;-68
2022/04/15 08:48:33;;;;;;;8.20;6.55;;;;;;;9.28;73.57;102772.47;5028516;28;20064;-68
2022/04/15 08:51:00;;;;;;;8.30;6.25;;;;;;;9.28;73.68;102777.66;5027135;28;20365;-69
2022/04/15 08:53:26;;;;;;;8.85;6.00;;;;;;;9.23;72.70;102774.41;5029459;28;20034;-69
2022/04/15 08:55:51;;;;;;;8.63;6.15;;;;;;;9.21;73.57;102771.06;5043936;28;20234;-69
2022/04/15 08:58:16;;;;;;;7.53;5.70;;;;;;;9.20;72.36;102774.56;5041585;28;20044;-68
2022/04/15 09:00:42;;;;;;;8.52;5.95;;;;;;;9.26;72.94;102784.66;5044117;28;20037;-68
2022/04/15 09:03:07;;;;;;;7.43;5.75;;;;;;;9.30;73.93;102775.84;5045373;28;20033;-69
2022/04/15 09:05:33;;;;;;;7.05;5.20;;;;;;;9.29;73.11;102779.34;5045893;28;20024;-67
2022/04/15 09:08:11;;;;;;;8.10;5.20;;;;;;;9.32;72.27;102784.38;5045468;28;20472;-69
2022/04/15 09:10:40;;;;;;;7.30;5.10;;;;;;;9.36;73.77;102791.09;5044104;28;20052;-68
2022/04/15 09:13:07;;;;;;;7.35;4.97;;;;;;;9.33;73.14;102791.22;5044116;28;20110;-69
2022/04/15 09:15:33;;;;;;;7.15;4.60;;;;;;;9.25;72.27;102791.59;5044209;28;20033;-70
2022/04/15 09:18:00;;;;;;;7.28;4.50;;;;;;;8.98;72.60;102744.47;5043900;28;20470;-69
2022/04/15 09:20:33;;;;;;;6.75;4.60;;;;;;;9.13;72.70;102802.50;5044352;28;20033;-69
2022/04/15 09:23:10;;;;;;;6.38;4.55;;;;;;;9.11;72.59;102795.69;5046025;28;20029;-69
2022/04/15 09:25:37;;;;;;;7.03;4.45;;;;;;;9.22;72.46;102793.47;5046684;28;20044;-69
2022/04/15 09:28:03;;;;;;;6.50;4.60;;;;;;;9.32;73.46;102792.16;5036515;28;20033;-70
2022/04/15 09:30:38;;;;;;;5.95;4.60;;;;;;;9.42;74.46;102795.16;5040123;28;20123;-69
2022/04/15 09:33:04;;;;;;;6.30;4.28;;;;;;;9.44;71.31;102812.31;5046046;28;20389;-70
2022/04/15 09:35:29;;;;;;;5.88;4.35;;;;;;;9.49;72.53;102807.78;5043692;28;20040;-69
2022/04/15 09:37:59;;;;;;;7.63;4.75;;;;;;;9.54;72.83;102816.16;5046511;28;20064;-69
2022/04/15 09:40:26;;;;;;;7.82;4.50;;;;;;;9.50;71.41;102814.63;5045812;28;20025;-69
2022/04/15 09:42:56;;;;;;;6.47;4.45;;;;;;;9.52;72.17;102814.56;5046168;28;20017;-69
2022/04/15 09:45:23;;;;;;;5.55;4.00;;;;;;;9.52;72.21;102823.19;5049361;28;20187;-69
2022/04/15 09:47:59;;;;;;;6.95;4.40;;;;;;;9.57;72.91;102818.59;5043431;28;20516;-69
2022/04/15 09:50:35;;;;;;;7.50;4.53;;;;;;;9.63;72.26;102814.06;5041903;28;20071;-69
2022/04/15 09:53:21;;;;;;;6.80;4.28;;;;;;;9.62;72.53;102813.22;5049735;28;20021;-69
2022/04/15 09:55:48;;;;;;;7.72;5.03;;;;;;;9.74;72.20;102827.38;5046274;28;20511;-69
2022/04/15 09:58:18;;;;;;;7.38;4.43;;;;;;;9.69;70.87;102829.31;5029344;28;20025;-69
2022/04/15 10:00:48;;;;;;;6.63;4.40;;;;;;;9.74;71.57;102824.78;5029075;28;20033;-69
2022/04/15 10:03:22;;;;;;;8.13;4.50;;;;;;;9.76;71.30;102825.56;5048544;28;20021;-69
2022/04/15 10:05:56;;;;;;;8.68;4.45;;;;;;;9.84;71.08;102831.22;5047853;28;20472;-69
2022/04/15 10:08:23;;;;;;;7.47;4.43;;;;;;;9.88;71.17;102840.53;5048960;28;20154;-69
2022/04/15 10:10:50;;;;;;;7.95;4.72;;;;;;;9.72;70.07;102829.19;5030841;28;20029;-69
2022/04/15 10:13:16;;;;;;;6.57;4.50;;;;;;;9.74;70.89;102828.19;5048667;28;20029;-69
2022/04/15 10:15:42;;;;;;;5.93;4.35;;;;;;;9.75;71.64;102826.47;5049477;28;20036;-69
2022/04/15 10:18:10;;;;;;;7.13;4.60;;;;;;;9.76;71.75;102831.59;5049319;28;20040;-69
2022/04/15 10:20:39;;;;;;;8.07;4.85;;;;;;;9.82;71.17;102830.47;5048377;28;20020;-69
2022/04/15 10:23:07;;;;;;;8.80;4.70;;;;;;;9.68;70.65;102827.66;5048932;28;20033;-69
2022/04/15 10:25:34;;;;;;;6.55;4.40;;;;;;;9.81;71.54;102829.63;5047324;28;20029;-69
2022/04/15 10:28:20;;;;;;;7.30;5.03;;;;;;;9.71;71.65;102827.53;5049022;28;20458;-69
2022/04/15 10:30:52;;;;;;;8.40;5.10;;;;;;;9.61;71.39;102826.25;5041333;28;20033;-69
2022/04/15 10:33:31;;;;;;;7.25;4.82;;;;;;;9.72;72.28;102834.38;5043163;28;20057;-68
2022/04/15 10:36:15;;;;;;;7.05;5.05;;;;;;;9.79;72.08;102828.00;5048287;28;20017;-69
2022/04/15 10:39:02;;;;;;;7.80;4.82;;;;;;;9.88;71.42;102830.19;5028692;28;20037;-69
2022/04/15 10:41:27;;;;;;;6.35;4.90;;;;;;;9.90;71.29;102828.34;5028838;28;20025;-69
2022/04/15 10:43:59;;;;;;;7.10;5.03;;;;;;;9.97;71.13;102829.72;5043584;28;20550;-71
2022/04/15 10:46:30;;;;;;;7.57;5.13;;;;;;;10.01;71.86;102826.09;5028441;28;20386;-68
2022/04/15 10:48:59;;;;;;;7.32;4.80;;;;;;;10.04;70.75;102825.97;5028656;28;20474;-69
2022/04/15 10:51:29;;;;;;;8.68;5.40;;;;;;;9.97;70.96;102821.13;5038403;28;20059;-69
2022/04/15 10:53:54;;;;;;;7.57;4.72;;;;;;;9.94;69.35;102829.88;5047581;28;20052;-68
2022/04/15 10:56:22;;;;;;;7.03;4.70;;;;;;;10.00;70.95;102823.56;5047907;28;20067;-69
2022/04/15 11:01:51;;;;;;;9.05;4.70;;;;;;;10.07;70.68;102820.59;5039982;28;20072;-68
2022/04/15 11:04:22;;;;;;;7.32;4.43;;;;;;;10.14;70.75;102822.91;5043931;28;20115;-69
2022/04/15 11:06:48;;;;;;;8.13;4.78;;;;;;;10.06;70.51;102825.88;5047851;28;20110;-69
2022/04/15 11:09:15;;;;;;;7.38;5.05;;;;;;;9.93;70.31;102828.22;5047877;28;20480;-68
2022/04/15 11:11:42;;;;;;;7.82;5.35;;;;;;;10.09;71.38;102818.81;5048325;28;20106;-70
2022/04/15 11:14:13;;;;;;;7.43;5.20;;;;;;;10.10;70.85;102815.28;5038822;28;20238;-68
2022/04/15 11:16:44;;;;;;;7.10;5.00;;;;;;;10.15;70.34;102819.41;5048531;28;20540;-68
2022/04/15 11:19:11;;;;;;;7.53;4.95;;;;;;;10.15;70.15;102814.22;5047893;28;20028;-69
2022/04/15 11:21:39;;;;;;;8.95;5.30;;;;;;;10.11;70.65;102816.97;5047989;28;20028;-68
2022/04/15 11:24:05;;;;;;;7.03;4.68;;;;;;;10.08;69.26;102822.28;5046910;28;20116;-69
2022/04/15 11:26:32;;;;;;;7.47;5.07;;;;;;;10.16;70.98;102816.75;5047916;28;20041;-69
2022/04/15 11:29:02;;;;;;;7.75;5.10;;;;;;;10.10;71.20;102815.28;5048649;28;20059;-69